MMVA/VSA METAR and TAF weather

Enter ICAO airport designator
Station Type Date Time Source
MMVA METAR 2021/05/14 10:06 UTC NOAA

MMVA 141006Z 00000KT 2SM -RA OVC012CB 21/21 A3001 RMK 8/9// VRB CONDS RTS


Station Type Date Time Source
MMVA Decoded METAR 2021/05/14 10:06 UTC NOAA

Villahermosa , Mexico (MMVA) 18-00N 092-49W
May 14, 2021 - 06:06 AM EDT / 2021.05.14 1006 UTC
Wind: Calm:0
Visibility: 2 mile(s):0
Sky conditions: overcast
Weather: light rain; Cumulonimbus clouds observed
Temperature: 69 F (21 C)
Dew Point: 69 F (21 C)
Relative Humidity: 100%
Pressure (altimeter): 30.01 in. Hg (1016 hPa)
ob: MMVA 141006Z 00000KT 2SM -RA OVC012CB 21/21 A3001 RMK 8/9// VRB CONDS RTS
cycle: 10

Station Type Date Time Source
MMVA TAF 2021/05/14 10:27 UTC NOAA

TAF
AMD MMVA 141020Z 1410/1506 02010KT 2SM RA OVC012CB
TEMPO 1410/1413 1SM TSRA
FM141300 03005KT 3SM BR HZ BKN010
FM141400 33008KT 5SM HZ SCT015 SCT250
FM142200 03008KT 5SM HZ BKN015
TEMPO 1422/1502 4SM RA

Example: see airport list